sensor_id;sensor_type;location;lat;lon;timestamp;pressure;altitude;pressure_sealevel;temperature;humidity
35551;BME280;21655;46.056;13.616;2023-05-21T00:00:58;100126.31;;;18.01;100.00
35551;BME280;21655;46.056;13.616;2023-05-21T00:03:25;100121.47;;;17.90;100.00
35551;BME280;21655;46.056;13.616;2023-05-21T00:05:52;100114.16;;;17.89;100.00
35551;BME280;21655;46.056;13.616;2023-05-21T00:08:18;100111.41;;;17.83;100.00
35551;BME280;21655;46.056;13.616;2023-05-21T00:10:44;100105.34;;;17.86;100.00
35551;BME280;21655;46.056;13.616;2023-05-21T00:13:09;100095.75;;;17.75;100.00
35551;BME280;21655;46.056;13.616;2023-05-21T00:15:35;100102.69;;;17.73;100.00
35551;BME280;21655;46.056;13.616;2023-05-21T00:18:01;100088.22;;;17.76;100.00
35551;BME280;21655;46.056;13.616;2023-05-21T00:20:26;100084.91;;;17.61;100.00
35551;BME280;21655;46.056;13.616;2023-05-21T00:22:53;100069.59;;;17.63;100.00
35551;BME280;21655;46.056;13.616;2023-05-21T00:25:19;100060.84;;;17.53;100.00
35551;BME280;21655;46.056;13.616;2023-05-21T00:27:44;100057.16;;;17.53;100.00
35551;BME280;21655;46.056;13.616;2023-05-21T00:30:10;100049.63;;;17.53;100.00
35551;BME280;21655;46.056;13.616;2023-05-21T00:32:36;100037.06;;;18.10;100.00
35551;BME280;21655;46.056;13.616;2023-05-21T00:35:01;100025.31;;;19.35;100.00
35551;BME280;21655;46.056;13.616;2023-05-21T00:37:27;100028.81;;;19.88;100.00
35551;BME280;21655;46.056;13.616;2023-05-21T00:39:59;100016.34;;;20.52;100.00
35551;BME280;21655;46.056;13.616;2023-05-21T00:42:24;100007.25;;;20.78;100.00
35551;BME280;21655;46.056;13.616;2023-05-21T00:44:51;100006.09;;;20.90;100.00
35551;BME280;21655;46.056;13.616;2023-05-21T00:47:18;99999.69;;;20.95;100.00
35551;BME280;21655;46.056;13.616;2023-05-21T00:49:48;99990.53;;;21.20;100.00
35551;BME280;21655;46.056;13.616;2023-05-21T00:52:15;100002.13;;;21.40;100.00
35551;BME280;21655;46.056;13.616;2023-05-21T00:54:45;99978.53;;;21.46;100.00
35551;BME280;21655;46.056;13.616;2023-05-21T00:57:12;99985.09;;;21.52;100.00
35551;BME280;21655;46.056;13.616;2023-05-21T00:59:38;99979.53;;;21.57;100.00
35551;BME280;21655;46.056;13.616;2023-05-21T01:02:04;99974.66;;;21.52;100.00
35551;BME280;21655;46.056;13.616;2023-05-21T01:04:31;99979.59;;;21.62;100.00
35551;BME280;21655;46.056;13.616;2023-05-21T01:06:56;99985.00;;;21.63;100.00
35551;BME280;21655;46.056;13.616;2023-05-21T01:09:26;99972.94;;;21.68;100.00
35551;BME280;21655;46.056;13.616;2023-05-21T01:11:53;99990.13;;;21.66;100.00
35551;BME280;21655;46.056;13.616;2023-05-21T01:14:21;99985.94;;;21.69;100.00
35551;BME280;21655;46.056;13.616;2023-05-21T01:16:48;99996.13;;;21.70;100.00
35551;BME280;21655;46.056;13.616;2023-05-21T01:19:16;99972.72;;;21.74;100.00
35551;BME280;21655;46.056;13.616;2023-05-21T01:21:48;99975.81;;;21.73;100.00
35551;BME280;21655;46.056;13.616;2023-05-21T01:24:15;99970.38;;;21.66;100.00
35551;BME280;21655;46.056;13.616;2023-05-21T01:26:41;99956.13;;;21.78;100.00
35551;BME280;21655;46.056;13.616;2023-05-21T01:29:08;99977.78;;;21.72;100.00
35551;BME280;21655;46.056;13.616;2023-05-21T01:34:22;99963.22;;;21.80;100.00
35551;BME280;21655;46.056;13.616;2023-05-21T01:37:20;99972.81;;;21.79;100.00
35551;BME280;21655;46.056;13.616;2023-05-21T01:39:51;99957.00;;;21.78;100.00
35551;BME280;21655;46.056;13.616;2023-05-21T01:42:20;99958.13;;;21.77;100.00
35551;BME280;21655;46.056;13.616;2023-05-21T01:44:47;99973.34;;;21.76;100.00
35551;BME280;21655;46.056;13.616;2023-05-21T01:47:14;99957.53;;;21.75;100.00
35551;BME280;21655;46.056;13.616;2023-05-21T01:49:42;99975.81;;;21.73;100.00
35551;BME280;21655;46.056;13.616;2023-05-21T01:52:07;99961.53;;;21.79;100.00
35551;BME280;21655;46.056;13.616;2023-05-21T01:54:33;99967.59;;;21.71;100.00
35551;BME280;21655;46.056;13.616;2023-05-21T01:56:59;99966.25;;;21.74;100.00
35551;BME280;21655;46.056;13.616;2023-05-21T01:59:25;99980.75;;;21.82;100.00
35551;BME280;21655;46.056;13.616;2023-05-21T02:01:51;99977.53;;;21.74;100.00
35551;BME280;21655;46.056;13.616;2023-05-21T02:04:17;99985.75;;;21.75;100.00
35551;BME280;21655;46.056;13.616;2023-05-21T02:06:42;99983.13;;;21.69;100.00
35551;BME280;21655;46.056;13.616;2023-05-21T02:09:08;99967.59;;;21.71;100.00
35551;BME280;21655;46.056;13.616;2023-05-21T02:11:34;99971.53;;;21.70;100.00
35551;BME280;21655;46.056;13.616;2023-05-21T02:13:59;99972.66;;;21.69;100.00
35551;BME280;21655;46.056;13.616;2023-05-21T02:16:24;99981.47;;;21.73;100.00
35551;BME280;21655;46.056;13.616;2023-05-21T02:18:50;99979.97;;;21.65;100.00
35551;BME280;21655;46.056;13.616;2023-05-21T02:21:17;99960.44;;;21.64;100.00
35551;BME280;21655;46.056;13.616;2023-05-21T02:23:44;99970.53;;;21.60;100.00
35551;BME280;21655;46.056;13.616;2023-05-21T02:26:10;99970.72;;;21.53;100.00
35551;BME280;21655;46.056;13.616;2023-05-21T02:28:35;99969.94;;;21.58;100.00
35551;BME280;21655;46.056;13.616;2023-05-21T02:31:01;99959.78;;;21.57;100.00
35551;BME280;21655;46.056;13.616;2023-05-21T02:33:26;99963.94;;;21.54;100.00
35551;BME280;21655;46.056;13.616;2023-05-21T02:35:52;99974.47;;;21.59;100.00
35551;BME280;21655;46.056;13.616;2023-05-21T02:38:17;99973.28;;;21.55;100.00
35551;BME280;21655;46.056;13.616;2023-05-21T02:40:48;99965.66;;;21.55;100.00
35551;BME280;21655;46.056;13.616;2023-05-21T02:43:14;99964.06;;;21.43;100.00
35551;BME280;21655;46.056;13.616;2023-05-21T02:45:40;99972.88;;;21.46;100.00
35551;BME280;21655;46.056;13.616;2023-05-21T02:48:05;99973.47;;;21.48;100.00
35551;BME280;21655;46.056;13.616;2023-05-21T02:50:30;99962.59;;;21.57;100.00
35551;BME280;21655;46.056;13.616;2023-05-21T02:52:56;99977.75;;;21.51;100.00
35551;BME280;21655;46.056;13.616;2023-05-21T02:55:23;99977.94;;;21.44;100.00
35551;BME280;21655;46.056;13.616;2023-05-21T02:57:49;99966.88;;;21.59;100.00
35551;BME280;21655;46.056;13.616;2023-05-21T03:00:14;99966.88;;;21.59;100.00
35551;BME280;21655;46.056;13.616;2023-05-21T03:02:41;99986.72;;;21.48;100.00
35551;BME280;21655;46.056;13.616;2023-05-21T03:05:06;99981.34;;;21.46;100.00
35551;BME280;21655;46.056;13.616;2023-05-21T03:07:32;99972.19;;;21.39;100.00
35551;BME280;21655;46.056;13.616;2023-05-21T03:09:57;99980.00;;;21.32;100.00
35551;BME280;21655;46.056;13.616;2023-05-21T03:12:23;99977.44;;;21.31;100.00
35551;BME280;21655;46.056;13.616;2023-05-21T03:14:49;99974.53;;;21.26;100.00
35551;BME280;21655;46.056;13.616;2023-05-21T03:17:16;100003.25;;;21.23;100.00
35551;BME280;21655;46.056;13.616;2023-05-21T03:19:42;99979.84;;;21.22;100.00
35551;BME280;21655;46.056;13.616;2023-05-21T03:22:08;99986.00;;;21.19;100.00
35551;BME280;21655;46.056;13.616;2023-05-21T03:24:36;99993.63;;;21.19;100.00
35551;BME280;21655;46.056;13.616;2023-05-21T03:27:02;99986.16;;;21.13;100.00
35551;BME280;21655;46.056;13.616;2023-05-21T03:29:30;100002.44;;;21.06;100.00
35551;BME280;21655;46.056;13.616;2023-05-21T03:31:55;100001.34;;;20.63;100.00
35551;BME280;21655;46.056;13.616;2023-05-21T03:34:22;100001.97;;;19.97;100.00
35551;BME280;21655;46.056;13.616;2023-05-21T03:36:48;100000.47;;;19.67;100.00
35551;BME280;21655;46.056;13.616;2023-05-21T03:39:13;99995.34;;;19.41;100.00
35551;BME280;21655;46.056;13.616;2023-05-21T03:41:39;100011.72;;;19.09;100.00
35551;BME280;21655;46.056;13.616;2023-05-21T03:44:05;100020.84;;;18.82;100.00
35551;BME280;21655;46.056;13.616;2023-05-21T03:46:30;100014.38;;;18.82;100.00
35551;BME280;21655;46.056;13.616;2023-05-21T03:48:56;100019.16;;;18.81;100.00
35551;BME280;21655;46.056;13.616;2023-05-21T03:51:22;100015.09;;;18.77;100.00
35551;BME280;21655;46.056;13.616;2023-05-21T03:53:49;100016.81;;;18.78;100.00
35551;BME280;21655;46.056;13.616;2023-05-21T03:56:15;100019.88;;;18.77;100.00
35551;BME280;21655;46.056;13.616;2023-05-21T03:58:40;100022.31;;;18.85;100.00
35551;BME280;21655;46.056;13.616;2023-05-21T04:01:06;100023.25;;;18.67;100.00
35551;BME280;21655;46.056;13.616;2023-05-21T04:03:33;100032.03;;;18.59;100.00
35551;BME280;21655;46.056;13.616;2023-05-21T04:06:00;100039.66;;;18.41;100.00
35551;BME280;21655;46.056;13.616;2023-05-21T04:08:25;100042.91;;;18.56;100.00
35551;BME280;21655;46.056;13.616;2023-05-21T04:10:51;100028.09;;;18.49;100.00
35551;BME280;21655;46.056;13.616;2023-05-21T04:13:16;100038.56;;;18.42;100.00
35551;BME280;21655;46.056;13.616;2023-05-21T04:15:42;100050.59;;;18.31;100.00
35551;BME280;21655;46.056;13.616;2023-05-21T04:18:08;100054.72;;;18.28;100.00
35551;BME280;21655;46.056;13.616;2023-05-21T04:20:35;100046.69;;;18.32;100.00
35551;BME280;21655;46.056;13.616;2023-05-21T04:23:00;100052.16;;;18.27;100.00
35551;BME280;21655;46.056;13.616;2023-05-21T04:25:27;100047.09;;;18.35;100.00
35551;BME280;21655;46.056;13.616;2023-05-21T04:27:52;100032.88;;;18.48;100.00
35551;BME280;21655;46.056;13.616;2023-05-21T04:30:19;100050.41;;;18.44;100.00
35551;BME280;21655;46.056;13.616;2023-05-21T04:32:44;100051.84;;;18.35;100.00
35551;BME280;21655;46.056;13.616;2023-05-21T04:35:10;100043.19;;;18.36;100.00
35551;BME280;21655;46.056;13.616;2023-05-21T04:37:36;100057.53;;;18.28;100.00
35551;BME280;21655;46.056;13.616;2023-05-21T04:40:07;100049.91;;;18.35;100.00
35551;BME280;21655;46.056;13.616;2023-05-21T04:42:33;100049.75;;;18.60;100.00
35551;BME280;21655;46.056;13.616;2023-05-21T04:44:59;100048.66;;;18.72;100.00
35551;BME280;21655;46.056;13.616;2023-05-21T04:47:24;100051.59;;;18.66;100.00
35551;BME280;21655;46.056;13.616;2023-05-21T04:49:50;100052.47;;;18.78;100.00
35551;BME280;21655;46.056;13.616;2023-05-21T04:52:16;100044.56;;;19.09;100.00
35551;BME280;21655;46.056;13.616;2023-05-21T04:54:42;100044.69;;;19.02;100.00
35551;BME280;21655;46.056;13.616;2023-05-21T04:57:10;100053.81;;;19.27;100.00
35551;BME280;21655;46.056;13.616;2023-05-21T04:59:35;100063.72;;;19.41;100.00
35551;BME280;21655;46.056;13.616;2023-05-21T05:02:00;100052.09;;;19.61;100.00
35551;BME280;21655;46.056;13.616;2023-05-21T05:04:26;100040.41;;;19.92;100.00
35551;BME280;21655;46.056;13.616;2023-05-21T05:06:52;100051.03;;;20.13;100.00
35551;BME280;21655;46.056;13.616;2023-05-21T05:09:18;100041.31;;;20.60;100.00
35551;BME280;21655;46.056;13.616;2023-05-21T05:11:45;100039.00;;;21.01;100.00
35551;BME280;21655;46.056;13.616;2023-05-21T05:14:10;100052.31;;;20.89;100.00
35551;BME280;21655;46.056;13.616;2023-05-21T05:16:36;100044.81;;;21.11;100.00
35551;BME280;21655;46.056;13.616;2023-05-21T05:19:02;100041.28;;;21.70;100.00
35551;BME280;21655;46.056;13.616;2023-05-21T05:21:27;100036.16;;;21.88;100.00
35551;BME280;21655;46.056;13.616;2023-05-21T05:23:52;100044.13;;;21.91;100.00
35551;BME280;21655;46.056;13.616;2023-05-21T05:26:18;100048.84;;;21.86;100.00
35551;BME280;21655;46.056;13.616;2023-05-21T05:28:43;100035.13;;;22.37;100.00
35551;BME280;21655;46.056;13.616;2023-05-21T05:31:10;100050.41;;;22.89;100.00
35551;BME280;21655;46.056;13.616;2023-05-21T05:33:35;100052.00;;;23.06;100.00
35551;BME280;21655;46.056;13.616;2023-05-21T05:36:01;100038.44;;;23.35;100.00
35551;BME280;21655;46.056;13.616;2023-05-21T05:38:26;100036.69;;;23.65;100.00
35551;BME280;21655;46.056;13.616;2023-05-21T05:40:52;100022.78;;;24.05;100.00
35551;BME280;21655;46.056;13.616;2023-05-21T05:43:17;100038.06;;;23.99;98.21
35551;BME280;21655;46.056;13.616;2023-05-21T05:45:42;100017.09;;;24.00;100.00
35551;BME280;21655;46.056;13.616;2023-05-21T05:48:08;100015.44;;;24.09;94.79
35551;BME280;21655;46.056;13.616;2023-05-21T05:50:33;100022.53;;;24.12;99.93
35551;BME280;21655;46.056;13.616;2023-05-21T05:52:59;100032.81;;;24.28;91.30
35551;BME280;21655;46.056;13.616;2023-05-21T05:55:24;100017.78;;;24.27;89.11
35551;BME280;21655;46.056;13.616;2023-05-21T05:57:51;100010.16;;;24.38;87.81
35551;BME280;21655;46.056;13.616;2023-05-21T06:00:16;100019.66;;;24.68;87.26
35551;BME280;21655;46.056;13.616;2023-05-21T06:02:42;100003.22;;;24.85;87.88
35551;BME280;21655;46.056;13.616;2023-05-21T06:05:08;100015.16;;;25.02;86.63
35551;BME280;21655;46.056;13.616;2023-05-21T06:07:35;100018.03;;;25.42;80.86
35551;BME280;21655;46.056;13.616;2023-05-21T06:10:01;100000.72;;;25.18;80.25
35551;BME280;21655;46.056;13.616;2023-05-21T06:12:26;100017.19;;;25.56;76.77
35551;BME280;21655;46.056;13.616;2023-05-21T06:14:52;100009.75;;;25.75;72.70
35551;BME280;21655;46.056;13.616;2023-05-21T06:17:17;100005.19;;;25.79;73.95
35551;BME280;21655;46.056;13.616;2023-05-21T06:19:42;99998.69;;;25.69;75.64
35551;BME280;21655;46.056;13.616;2023-05-21T06:22:09;99993.19;;;26.02;70.35
35551;BME280;21655;46.056;13.616;2023-05-21T06:24:34;99994.59;;;26.10;68.16
35551;BME280;21655;46.056;13.616;2023-05-21T06:27:00;99995.81;;;25.84;73.30
35551;BME280;21655;46.056;13.616;2023-05-21T06:29:26;100009.19;;;25.88;73.28
35551;BME280;21655;46.056;13.616;2023-05-21T06:31:51;99993.53;;;25.91;72.46
35551;BME280;21655;46.056;13.616;2023-05-21T06:34:17;100002.06;;;25.91;70.53
35551;BME280;21655;46.056;13.616;2023-05-21T06:36:42;99994.59;;;26.10;71.06
35551;BME280;21655;46.056;13.616;2023-05-21T06:39:07;99995.94;;;26.32;70.48
35551;BME280;21655;46.056;13.616;2023-05-21T06:41:33;100006.00;;;26.73;66.20
35551;BME280;21655;46.056;13.616;2023-05-21T06:43:58;99998.88;;;26.71;65.84
35551;BME280;21655;46.056;13.616;2023-05-21T06:46:24;100006.94;;;26.54;66.31
35551;BME280;21655;46.056;13.616;2023-05-21T06:48:49;100007.19;;;26.62;68.55
35551;BME280;21655;46.056;13.616;2023-05-21T06:51:15;100000.09;;;27.03;65.55
35551;BME280;21655;46.056;13.616;2023-05-21T06:53:40;99995.88;;;27.91;63.58
35551;BME280;21655;46.056;13.616;2023-05-21T06:56:06;100006.16;;;27.58;63.85
35551;BME280;21655;46.056;13.616;2023-05-21T06:58:31;100002.69;;;27.33;60.84
35551;BME280;21655;46.056;13.616;2023-05-21T07:00:57;100005.28;;;26.38;63.54
35551;BME280;21655;46.056;13.616;2023-05-21T07:03:23;100010.91;;;25.64;70.03
35551;BME280;21655;46.056;13.616;2023-05-21T07:05:48;100002.09;;;25.01;75.40
35551;BME280;21655;46.056;13.616;2023-05-21T07:08:13;100004.91;;;24.76;77.67
35551;BME280;21655;46.056;13.616;2023-05-21T07:10:39;100004.91;;;24.71;77.27
35551;BME280;21655;46.056;13.616;2023-05-21T07:13:04;100009.31;;;24.32;77.11
35551;BME280;21655;46.056;13.616;2023-05-21T07:15:30;100004.97;;;24.20;85.94
35551;BME280;21655;46.056;13.616;2023-05-21T07:17:55;99989.41;;;24.17;80.77
35551;BME280;21655;46.056;13.616;2023-05-21T07:20:21;100015.66;;;23.98;83.98
35551;BME280;21655;46.056;13.616;2023-05-21T07:22:46;100001.81;;;24.01;90.12
35551;BME280;21655;46.056;13.616;2023-05-21T07:25:11;99996.16;;;24.06;85.47
35551;BME280;21655;46.056;13.616;2023-05-21T07:27:37;99991.53;;;23.90;85.96
35551;BME280;21655;46.056;13.616;2023-05-21T07:30:03;99989.91;;;24.04;85.15
35551;BME280;21655;46.056;13.616;2023-05-21T07:32:28;99989.03;;;24.04;83.76
35551;BME280;21655;46.056;13.616;2023-05-21T07:34:54;99985.72;;;24.17;84.10
35551;BME280;21655;46.056;13.616;2023-05-21T07:37:20;99983.16;;;24.15;82.27
35551;BME280;21655;46.056;13.616;2023-05-21T07:39:46;99982.03;;;24.16;82.52
35551;BME280;21655;46.056;13.616;2023-05-21T07:42:11;99990.28;;;24.23;82.67
35551;BME280;21655;46.056;13.616;2023-05-21T07:44:37;99984.09;;;24.41;84.60
35551;BME280;21655;46.056;13.616;2023-05-21T07:47:03;99982.41;;;24.45;77.17
35551;BME280;21655;46.056;13.616;2023-05-21T07:49:28;99979.34;;;24.56;81.15
35551;BME280;21655;46.056;13.616;2023-05-21T07:51:53;99964.25;;;24.51;78.89
35551;BME280;21655;46.056;13.616;2023-05-21T07:54:19;99976.22;;;24.53;77.54
35551;BME280;21655;46.056;13.616;2023-05-21T07:56:44;99978.81;;;24.74;74.51
35551;BME280;21655;46.056;13.616;2023-05-21T07:59:12;99992.75;;;24.96;75.94
35551;BME280;21655;46.056;13.616;2023-05-21T08:01:38;99986.50;;;24.99;73.92
35551;BME280;21655;46.056;13.616;2023-05-21T08:04:05;99977.13;;;25.18;69.78
35551;BME280;21655;46.056;13.616;2023-05-21T08:06:31;99971.72;;;25.51;68.73
35551;BME280;21655;46.056;13.616;2023-05-21T08:09:00;99971.19;;;25.44;66.35
35551;BME280;21655;46.056;13.616;2023-05-21T08:11:26;99969.19;;;26.38;64.74
35551;BME280;21655;46.056;13.616;2023-05-21T08:13:52;99970.84;;;26.44;58.13
35551;BME280;21655;46.056;13.616;2023-05-21T08:16:18;99967.34;;;27.01;53.93
35551;BME280;21655;46.056;13.616;2023-05-21T08:18:43;99961.94;;;27.94;53.43
35551;BME280;21655;46.056;13.616;2023-05-21T08:21:08;99978.16;;;28.17;52.90
35551;BME280;21655;46.056;13.616;2023-05-21T08:23:34;99988.94;;;28.02;49.83
35551;BME280;21655;46.056;13.616;2023-05-21T08:25:59;99979.56;;;27.73;51.12
35551;BME280;21655;46.056;13.616;2023-05-21T08:28:25;99988.31;;;27.48;51.28
35551;BME280;21655;46.056;13.616;2023-05-21T08:30:52;99990.44;;;28.18;50.98
35551;BME280;21655;46.056;13.616;2023-05-21T08:33:18;99978.81;;;27.29;48.98
35551;BME280;21655;46.056;13.616;2023-05-21T08:35:43;99991.78;;;26.68;49.86
35551;BME280;21655;46.056;13.616;2023-05-21T08:38:09;100003.69;;;26.17;50.18
35551;BME280;21655;46.056;13.616;2023-05-21T08:40:34;99999.16;;;26.06;51.67
35551;BME280;21655;46.056;13.616;2023-05-21T08:43:00;99989.25;;;26.03;51.23
35551;BME280;21655;46.056;13.616;2023-05-21T08:45:26;99999.25;;;25.86;51.96
35551;BME280;21655;46.056;13.616;2023-05-21T08:47:55;99998.34;;;26.05;52.06
35551;BME280;21655;46.056;13.616;2023-05-21T08:50:24;99987.63;;;26.41;50.36
35551;BME280;21655;46.056;13.616;2023-05-21T08:52:51;99988.53;;;26.36;50.78
35551;BME280;21655;46.056;13.616;2023-05-21T08:55:16;100016.44;;;26.24;50.58
35551;BME280;21655;46.056;13.616;2023-05-21T08:57:43;100003.88;;;26.40;52.70
35551;BME280;21655;46.056;13.616;2023-05-21T09:00:09;100006.66;;;26.45;48.24
35551;BME280;21655;46.056;13.616;2023-05-21T09:02:37;100002.22;;;26.19;47.98
35551;BME280;21655;46.056;13.616;2023-05-21T09:05:05;100004.50;;;26.27;50.30
35551;BME280;21655;46.056;13.616;2023-05-21T09:07:36;100000.53;;;26.18;50.46
35551;BME280;21655;46.056;13.616;2023-05-21T09:10:06;99995.44;;;26.74;49.47
35551;BME280;21655;46.056;13.616;2023-05-21T09:12:34;100007.22;;;26.57;49.47
35551;BME280;21655;46.056;13.616;2023-05-21T09:15:00;100004.03;;;27.07;49.88
35551;BME280;21655;46.056;13.616;2023-05-21T09:17:26;100001.44;;;27.16;48.56
35551;BME280;21655;46.056;13.616;2023-05-21T09:22:46;100014.22;;;27.51;49.04
35551;BME280;21655;46.056;13.616;2023-05-21T09:25:14;100023.22;;;28.86;45.61
35551;BME280;21655;46.056;13.616;2023-05-21T09:27:40;100023.75;;;29.06;43.96
35551;BME280;21655;46.056;13.616;2023-05-21T09:30:10;100024.88;;;27.98;45.51
35551;BME280;21655;46.056;13.616;2023-05-21T09:32:37;100028.84;;;27.73;47.55
35551;BME280;21655;46.056;13.616;2023-05-21T09:35:11;100017.22;;;26.93;50.36
35551;BME280;21655;46.056;13.616;2023-05-21T09:37:47;100002.38;;;26.58;51.03
35551;BME280;21655;46.056;13.616;2023-05-21T09:40:14;100003.09;;;27.55;49.91
35551;BME280;21655;46.056;13.616;2023-05-21T09:42:42;100002.84;;;29.11;46.60
35551;BME280;21655;46.056;13.616;2023-05-21T09:45:09;99999.41;;;30.36;43.44
35551;BME280;21655;46.056;13.616;2023-05-21T09:47:42;99986.16;;;30.67;42.25
35551;BME280;21655;46.056;13.616;2023-05-21T09:50:21;100001.19;;;31.08;40.70
35551;BME280;21655;46.056;13.616;2023-05-21T09:52:48;100000.03;;;30.60;42.93
35551;BME280;21655;46.056;13.616;2023-05-21T09:55:15;99990.00;;;30.85;42.16
35551;BME280;21655;46.056;13.616;2023-05-21T09:57:42;99998.31;;;31.08;40.29
35551;BME280;21655;46.056;13.616;2023-05-21T10:00:09;99991.59;;;31.26;40.72
35551;BME280;21655;46.056;13.616;2023-05-21T10:02:44;99985.50;;;31.06;40.36
35551;BME280;21655;46.056;13.616;2023-05-21T10:05:10;100003.22;;;31.21;41.00
35551;BME280;21655;46.056;13.616;2023-05-21T10:07:39;99989.34;;;31.01;40.92
35551;BME280;21655;46.056;13.616;2023-05-21T10:10:06;100008.16;;;30.94;40.81
35551;BME280;21655;46.056;13.616;2023-05-21T10:12:35;99979.56;;;31.02;39.76
35551;BME280;21655;46.056;13.616;2023-05-21T10:15:03;100007.91;;;31.39;39.56
35551;BME280;21655;46.056;13.616;2023-05-21T10:17:29;100005.28;;;30.80;38.55
35551;BME280;21655;46.056;13.616;2023-05-21T10:19:55;100012.44;;;31.05;40.04
35551;BME280;21655;46.056;13.616;2023-05-21T10:22:24;100007.03;;;30.81;39.75
35551;BME280;21655;46.056;13.616;2023-05-21T10:24:51;100002.28;;;30.99;39.87
35551;BME280;21655;46.056;13.616;2023-05-21T10:27:17;99987.22;;;30.58;39.37
35551;BME280;21655;46.056;13.616;2023-05-21T10:29:44;99998.97;;;31.19;39.56
35551;BME280;21655;46.056;13.616;2023-05-21T10:32:14;99999.59;;;31.16;39.25
35551;BME280;21655;46.056;13.616;2023-05-21T10:34:42;100001.53;;;31.07;39.14
35551;BME280;21655;46.056;13.616;2023-05-21T10:37:08;99995.69;;;31.69;38.77
35551;BME280;21655;46.056;13.616;2023-05-21T10:39:35;99997.63;;;31.82;37.19
35551;BME280;21655;46.056;13.616;2023-05-21T10:55:33;100000.56;;;30.62;40.27
35551;BME280;21655;46.056;13.616;2023-05-21T11:00:54;100004.03;;;30.19;39.34
35551;BME280;21655;46.056;13.616;2023-05-21T11:03:20;99996.63;;;30.04;39.61
35551;BME280;21655;46.056;13.616;2023-05-21T11:05:55;99989.59;;;29.83;41.71
35551;BME280;21655;46.056;13.616;2023-05-21T11:08:29;99982.03;;;29.42;39.82
35551;BME280;21655;46.056;13.616;2023-05-21T11:10:57;99998.69;;;29.22;41.43
35551;BME280;21655;46.056;13.616;2023-05-21T11:13:27;99993.47;;;29.42;40.92
35551;BME280;21655;46.056;13.616;2023-05-21T11:21:05;100016.28;;;29.10;40.72
35551;BME280;21655;46.056;13.616;2023-05-21T11:23:53;99999.59;;;29.35;39.98
35551;BME280;21655;46.056;13.616;2023-05-21T11:26:27;99988.06;;;29.59;40.59
35551;BME280;21655;46.056;13.616;2023-05-21T11:29:08;99997.69;;;29.63;41.14
35551;BME280;21655;46.056;13.616;2023-05-21T11:31:34;99989.28;;;29.53;39.39
35551;BME280;21655;46.056;13.616;2023-05-21T11:34:20;99975.19;;;29.24;41.03
35551;BME280;21655;46.056;13.616;2023-05-21T11:39:48;99980.25;;;29.78;41.49
35551;BME280;21655;46.056;13.616;2023-05-21T11:42:33;99982.03;;;29.42;41.34
35551;BME280;21655;46.056;13.616;2023-05-21T11:45:00;99993.00;;;28.80;41.38
35551;BME280;21655;46.056;13.616;2023-05-21T11:47:29;99985.19;;;29.09;41.00
35551;BME280;21655;46.056;13.616;2023-05-21T11:49:58;99981.53;;;29.22;41.05
35551;BME280;21655;46.056;13.616;2023-05-21T11:52:23;99980.53;;;29.44;39.80
35551;BME280;21655;46.056;13.616;2023-05-21T11:54:52;99981.97;;;29.47;40.85
35551;BME280;21655;46.056;13.616;2023-05-21T11:57:24;99983.56;;;29.53;40.17
35551;BME280;21655;46.056;13.616;2023-05-21T11:59:51;99999.91;;;29.66;41.12
35551;BME280;21655;46.056;13.616;2023-05-21T12:02:20;99971.19;;;30.03;38.85
35551;BME280;21655;46.056;13.616;2023-05-21T12:04:48;99983.72;;;29.43;40.25
35551;BME280;21655;46.056;13.616;2023-05-21T12:07:15;99977.66;;;29.49;40.93
35551;BME280;21655;46.056;13.616;2023-05-21T12:09:42;99967.19;;;29.40;40.71
35551;BME280;21655;46.056;13.616;2023-05-21T12:12:09;99982.34;;;29.40;39.89
35551;BME280;21655;46.056;13.616;2023-05-21T12:14:36;99972.72;;;29.68;39.64
35551;BME280;21655;46.056;13.616;2023-05-21T12:17:02;99973.78;;;29.72;39.36
35551;BME280;21655;46.056;13.616;2023-05-21T12:19:36;99974.06;;;29.71;41.37
35551;BME280;21655;46.056;13.616;2023-05-21T12:22:05;99973.31;;;30.11;39.80
35551;BME280;21655;46.056;13.616;2023-05-21T12:24:31;99968.03;;;30.04;39.77
35551;BME280;21655;46.056;13.616;2023-05-21T12:26:58;99952.97;;;30.26;40.10
35551;BME280;21655;46.056;13.616;2023-05-21T12:29:29;99969.72;;;30.19;40.58
35551;BME280;21655;46.056;13.616;2023-05-21T12:31:58;99978.69;;;29.99;40.67
35551;BME280;21655;46.056;13.616;2023-05-21T12:34:48;99961.81;;;29.84;40.18
35551;BME280;21655;46.056;13.616;2023-05-21T12:37:22;99948.34;;;29.71;41.11
35551;BME280;21655;46.056;13.616;2023-05-21T12:39:52;99962.72;;;29.52;41.49
35551;BME280;21655;46.056;13.616;2023-05-21T12:42:28;99952.19;;;29.80;41.54
35551;BME280;21655;46.056;13.616;2023-05-21T12:44:55;99954.19;;;29.79;42.73
35551;BME280;21655;46.056;13.616;2023-05-21T12:47:24;99948.56;;;29.88;43.34
35551;BME280;21655;46.056;13.616;2023-05-21T12:49:55;99941.84;;;30.11;40.83
35551;BME280;21655;46.056;13.616;2023-05-21T12:52:22;99940.41;;;29.68;41.82
35551;BME280;21655;46.056;13.616;2023-05-21T12:54:49;99943.06;;;29.32;42.27
35551;BME280;21655;46.056;13.616;2023-05-21T12:57:17;99962.09;;;28.87;41.47
35551;BME280;21655;46.056;13.616;2023-05-21T12:59:54;99954.75;;;28.62;42.49
35551;BME280;21655;46.056;13.616;2023-05-21T13:02:24;99962.94;;;28.27;42.99
35551;BME280;21655;46.056;13.616;2023-05-21T13:04:54;99964.94;;;28.26;44.32
35551;BME280;21655;46.056;13.616;2023-05-21T13:07:20;99963.19;;;28.07;44.17
35551;BME280;21655;46.056;13.616;2023-05-21T13:09:46;99958.03;;;28.09;45.61